createdAt,value
2022-12-16T00:00:19.048Z,1005.51
2022-12-16T00:01:19.025Z,1005.50
2022-12-16T00:02:19.090Z,1005.48
2022-12-16T00:03:19.020Z,1005.49
2022-12-16T00:04:18.964Z,1005.51
2022-12-16T00:05:18.964Z,1005.52
2022-12-16T00:06:18.958Z,1005.52
2022-12-16T00:07:18.947Z,1005.48
2022-12-16T00:08:18.931Z,1005.47
2022-12-16T00:09:18.926Z,1005.47
2022-12-16T00:10:18.915Z,1005.50
2022-12-16T00:11:18.932Z,1005.50
2022-12-16T00:12:18.889Z,1005.52
2022-12-16T00:13:18.886Z,1005.57
2022-12-16T00:14:18.884Z,1005.54
2022-12-16T00:15:18.862Z,1005.52
2022-12-16T00:16:18.898Z,1005.52
2022-12-16T00:17:18.902Z,1005.56
2022-12-16T00:18:18.834Z,1005.55
2022-12-16T00:19:18.825Z,1005.52
2022-12-16T00:20:18.816Z,1005.55
2022-12-16T00:21:18.820Z,1005.54
2022-12-16T00:22:18.801Z,1005.56
2022-12-16T00:23:18.868Z,1005.56
2022-12-16T00:24:18.765Z,1005.54
2022-12-16T00:25:18.769Z,1005.56
2022-12-16T00:26:18.734Z,1005.52
2022-12-16T00:27:18.762Z,1005.57
2022-12-16T00:28:18.717Z,1005.59
2022-12-16T00:29:18.707Z,1005.59
2022-12-16T00:30:18.697Z,1005.60
2022-12-16T00:31:18.720Z,1005.62
2022-12-16T00:32:18.686Z,1005.65
2022-12-16T00:33:18.676Z,1005.66
2022-12-16T00:34:18.664Z,1005.70
2022-12-16T00:35:18.649Z,1005.69
2022-12-16T00:36:18.632Z,1005.69
2022-12-16T00:37:18.649Z,1005.72
2022-12-16T00:38:18.610Z,1005.70
2022-12-16T00:39:18.604Z,1005.73
2022-12-16T00:40:18.616Z,1005.74
2022-12-16T00:41:18.583Z,1005.79
2022-12-16T00:42:18.580Z,1005.82
2022-12-16T00:43:18.558Z,1005.84
2022-12-16T00:44:18.567Z,1005.88
2022-12-16T00:45:18.558Z,1005.89
2022-12-16T00:46:18.574Z,1005.89
2022-12-16T00:47:18.527Z,1005.87
2022-12-16T00:48:18.531Z,1005.91
2022-12-16T00:49:18.529Z,1005.95
2022-12-16T00:50:18.485Z,1005.94
2022-12-16T00:51:18.477Z,1005.96
2022-12-16T00:52:18.466Z,1005.96
2022-12-16T00:53:18.466Z,1005.93
2022-12-16T00:54:18.444Z,1005.90
2022-12-16T00:55:18.457Z,1005.90
2022-12-16T00:56:18.438Z,1005.95
2022-12-16T00:57:18.418Z,1005.96
2022-12-16T00:58:18.403Z,1005.91
2022-12-16T00:59:18.425Z,1005.89
2022-12-16T01:00:18.417Z,1005.92
2022-12-16T01:01:18.501Z,1005.88
2022-12-16T01:02:18.562Z,1005.85
2022-12-16T01:03:31.133Z,1005.84
2022-12-16T01:04:19.376Z,1005.85
2022-12-16T01:05:18.328Z,1005.84
2022-12-16T01:06:18.345Z,1005.84
2022-12-16T01:07:18.313Z,1005.78
2022-12-16T01:08:18.303Z,1005.77
2022-12-16T01:09:18.284Z,1005.75
2022-12-16T01:10:18.277Z,1005.81
2022-12-16T01:11:18.292Z,1005.77
2022-12-16T01:12:18.267Z,1005.81
2022-12-16T01:13:18.263Z,1005.80
2022-12-16T01:14:18.230Z,1005.77
2022-12-16T01:15:18.244Z,1005.75
2022-12-16T01:16:18.272Z,1005.80
2022-12-16T01:17:18.211Z,1005.76
2022-12-16T01:18:18.183Z,1005.82
2022-12-16T01:19:18.182Z,1005.80
2022-12-16T01:20:18.201Z,1005.84
2022-12-16T01:21:18.171Z,1005.89
2022-12-16T01:22:18.178Z,1005.86
2022-12-16T01:23:18.145Z,1005.86
2022-12-16T01:24:18.150Z,1005.94
2022-12-16T01:25:18.109Z,1005.92
2022-12-16T01:26:18.104Z,1005.87
2022-12-16T01:27:18.102Z,1005.89
2022-12-16T01:28:18.114Z,1005.84
2022-12-16T01:29:18.079Z,1005.87
2022-12-16T01:30:18.081Z,1005.86
2022-12-16T01:31:18.134Z,1005.90
2022-12-16T01:32:18.047Z,1005.89
2022-12-16T01:33:18.038Z,1005.87
2022-12-16T01:34:18.024Z,1005.89
2022-12-16T01:35:50.761Z,1005.90
2022-12-16T01:36:19.027Z,1005.89
2022-12-16T01:37:17.984Z,1005.88
2022-12-16T01:38:17.982Z,1005.88
2022-12-16T01:39:17.999Z,1005.87
2022-12-16T01:40:17.958Z,1005.87
2022-12-16T01:41:17.947Z,1005.84
2022-12-16T01:42:17.944Z,1005.89
2022-12-16T01:43:17.952Z,1005.90
2022-12-16T01:44:17.928Z,1005.89
2022-12-16T01:45:17.904Z,1005.89
2022-12-16T01:46:17.966Z,1005.85
2022-12-16T01:47:17.885Z,1005.83
2022-12-16T01:48:17.872Z,1005.88
2022-12-16T01:49:17.891Z,1005.83
2022-12-16T01:50:17.859Z,1005.82
2022-12-16T01:51:17.860Z,1005.84
2022-12-16T01:52:17.856Z,1005.85
2022-12-16T01:53:17.819Z,1005.81
2022-12-16T01:54:17.825Z,1005.83
2022-12-16T01:55:17.806Z,1005.81
2022-12-16T01:56:17.786Z,1005.85
2022-12-16T01:57:17.785Z,1005.87
2022-12-16T01:58:17.774Z,1005.86
2022-12-16T01:59:17.763Z,1005.86
2022-12-16T02:00:17.787Z,1005.87
2022-12-16T02:01:17.956Z,1005.84
2022-12-16T02:02:17.827Z,1005.84
2022-12-16T02:03:17.860Z,1005.85
2022-12-16T02:04:17.700Z,1005.84
2022-12-16T02:05:17.692Z,1005.84
2022-12-16T02:06:17.684Z,1005.81
2022-12-16T02:07:17.679Z,1005.82
2022-12-16T02:08:17.710Z,1005.87
2022-12-16T02:09:17.651Z,1005.88
2022-12-16T02:10:17.658Z,1005.89
2022-12-16T02:11:17.642Z,1005.84
2022-12-16T02:12:17.629Z,1005.87
2022-12-16T02:13:17.656Z,1005.90
2022-12-16T02:14:17.600Z,1005.87
2022-12-16T02:15:17.628Z,1005.86
2022-12-16T02:16:17.754Z,1005.84
2022-12-16T02:17:17.644Z,1005.83
2022-12-16T02:18:17.571Z,1005.84
2022-12-16T02:19:17.584Z,1005.81
2022-12-16T02:20:17.538Z,1005.81
2022-12-16T02:21:17.522Z,1005.78
2022-12-16T02:22:17.524Z,1005.81
2022-12-16T02:23:17.537Z,1005.81
2022-12-16T02:24:17.518Z,1005.80
2022-12-16T02:25:17.496Z,1005.82
2022-12-16T02:26:17.473Z,1005.80
2022-12-16T02:27:17.464Z,1005.80
2022-12-16T02:28:17.453Z,1005.79
2022-12-16T02:29:17.473Z,1005.78
2022-12-16T02:30:17.443Z,1005.82
2022-12-16T02:31:17.505Z,1005.80
2022-12-16T02:32:17.412Z,1005.81
2022-12-16T02:33:17.403Z,1005.79
2022-12-16T02:34:17.428Z,1005.79
2022-12-16T02:35:17.384Z,1005.82
2022-12-16T02:36:17.384Z,1005.75
2022-12-16T02:37:17.368Z,1005.77
2022-12-16T02:38:17.350Z,1005.76
2022-12-16T02:39:17.346Z,1005.80
2022-12-16T02:40:17.378Z,1005.78
2022-12-16T02:41:17.326Z,1005.74
2022-12-16T02:42:17.313Z,1005.78
2022-12-16T02:43:17.299Z,1005.71
2022-12-16T02:44:17.316Z,1005.76
2022-12-16T02:45:17.284Z,1005.73
2022-12-16T02:46:17.425Z,1005.73
2022-12-16T02:47:17.258Z,1005.74
2022-12-16T02:48:17.244Z,1005.68
2022-12-16T02:49:17.239Z,1005.69
2022-12-16T02:50:17.253Z,1005.67
2022-12-16T02:51:17.221Z,1005.68
2022-12-16T02:52:17.204Z,1005.66
2022-12-16T02:53:17.212Z,1005.69
2022-12-16T02:54:17.184Z,1005.67
2022-12-16T02:55:17.177Z,1005.70
2022-12-16T02:56:17.214Z,1005.61
2022-12-16T02:57:17.172Z,1005.65
2022-12-16T02:58:17.152Z,1005.64
2022-12-16T02:59:17.130Z,1005.61
2022-12-16T03:00:17.124Z,1005.58
2022-12-16T03:01:17.177Z,1005.61
2022-12-16T03:02:17.350Z,1005.61
2022-12-16T03:03:17.133Z,1005.69
2022-12-16T03:04:17.075Z,1005.64
2022-12-16T03:05:17.073Z,1005.65
2022-12-16T03:06:17.076Z,1005.70
2022-12-16T03:07:17.052Z,1005.68
2022-12-16T03:08:17.057Z,1005.69
2022-12-16T03:09:17.024Z,1005.67
2022-12-16T03:10:17.021Z,1005.72
2022-12-16T03:11:17.010Z,1005.68
2022-12-16T03:12:17.012Z,1005.68
2022-12-16T03:13:16.992Z,1005.64
2022-12-16T03:14:16.996Z,1005.69
2022-12-16T03:15:16.975Z,1005.68
2022-12-16T03:16:16.983Z,1005.71
2022-12-16T03:17:16.938Z,1005.69
2022-12-16T03:18:16.929Z,1005.72
2022-12-16T03:19:16.946Z,1005.70
2022-12-16T03:20:16.921Z,1005.75
2022-12-16T03:21:16.905Z,1005.71
2022-12-16T03:22:16.896Z,1005.72
2022-12-16T03:23:16.885Z,1005.69
2022-12-16T03:24:16.872Z,1005.64
2022-12-16T03:25:16.867Z,1005.65
2022-12-16T03:26:16.855Z,1005.61
2022-12-16T03:27:16.836Z,1005.62
2022-12-16T03:28:16.872Z,1005.60
2022-12-16T03:29:16.850Z,1005.62
2022-12-16T03:30:16.823Z,1005.61
2022-12-16T03:31:16.839Z,1005.64
2022-12-16T03:32:16.793Z,1005.57
2022-12-16T03:33:16.779Z,1005.58
2022-12-16T03:34:16.770Z,1005.56
2022-12-16T03:35:16.774Z,1005.56
2022-12-16T03:36:16.764Z,1005.53
2022-12-16T03:37:25.836Z,1005.53
2022-12-16T03:38:16.727Z,1005.54
2022-12-16T03:39:16.711Z,1005.54
2022-12-16T03:40:16.727Z,1005.54
2022-12-16T03:41:16.699Z,1005.55
2022-12-16T03:42:16.687Z,1005.54
2022-12-16T03:43:16.683Z,1005.57
2022-12-16T03:44:16.678Z,1005.47
2022-12-16T03:45:16.660Z,1005.47
2022-12-16T03:46:16.732Z,1005.48
2022-12-16T03:47:23.127Z,1005.45
2022-12-16T03:48:17.634Z,1005.49
2022-12-16T03:49:16.608Z,1005.47
2022-12-16T03:50:16.598Z,1005.43
2022-12-16T03:51:16.610Z,1005.42
2022-12-16T03:52:16.575Z,1005.46
2022-12-16T03:53:16.575Z,1005.46
2022-12-16T03:54:16.566Z,1005.44
2022-12-16T03:55:16.543Z,1005.48
2022-12-16T03:56:16.573Z,1005.50
2022-12-16T03:57:16.529Z,1005.48
2022-12-16T03:58:16.528Z,1005.52
2022-12-16T03:59:16.506Z,1005.50
2022-12-16T04:00:16.513Z,1005.50
2022-12-16T04:01:16.570Z,1005.46
2022-12-16T04:02:16.649Z,1005.48
2022-12-16T04:03:16.684Z,1005.58
2022-12-16T04:04:16.454Z,1005.47
2022-12-16T04:05:16.436Z,1005.50
2022-12-16T04:06:16.434Z,1005.50
2022-12-16T04:07:16.434Z,1005.51
2022-12-16T04:08:16.441Z,1005.51
2022-12-16T04:09:16.398Z,1005.48
2022-12-16T04:10:16.385Z,1005.55
2022-12-16T04:11:16.383Z,1005.53
2022-12-16T04:12:16.365Z,1005.53
2022-12-16T04:13:16.363Z,1005.57
2022-12-16T04:14:16.380Z,1005.59
2022-12-16T04:15:16.336Z,1005.56
2022-12-16T04:16:16.397Z,1005.51
2022-12-16T04:17:16.322Z,1005.55
2022-12-16T04:18:16.323Z,1005.61
2022-12-16T04:19:16.296Z,1005.61
2022-12-16T04:20:16.285Z,1005.62
2022-12-16T04:21:16.280Z,1005.59
2022-12-16T04:22:16.270Z,1005.64
2022-12-16T04:23:16.270Z,1005.67
2022-12-16T04:24:16.249Z,1005.62
2022-12-16T04:25:16.243Z,1005.64
2022-12-16T04:26:16.221Z,1005.65
2022-12-16T04:27:16.291Z,1005.68
2022-12-16T04:28:16.206Z,1005.68
2022-12-16T04:29:16.201Z,1005.68
2022-12-16T04:30:16.188Z,1005.63
2022-12-16T04:31:16.234Z,1005.66
2022-12-16T04:32:16.180Z,1005.63
2022-12-16T04:33:16.150Z,1005.68
2022-12-16T04:34:16.155Z,1005.69
2022-12-16T04:35:16.133Z,1005.66
2022-12-16T04:36:16.125Z,1005.65
2022-12-16T04:37:16.104Z,1005.68
2022-12-16T04:38:16.095Z,1005.69
2022-12-16T04:39:16.112Z,1005.71
2022-12-16T04:40:16.085Z,1005.65
2022-12-16T04:41:16.072Z,1005.74
2022-12-16T04:42:16.060Z,1005.73
2022-12-16T04:43:16.043Z,1005.76
2022-12-16T04:44:16.042Z,1005.81
2022-12-16T04:45:16.035Z,1005.82
2022-12-16T04:46:16.105Z,1005.79
2022-12-16T04:47:15.998Z,1005.77
2022-12-16T04:48:16.012Z,1005.80
2022-12-16T04:49:15.988Z,1005.80
2022-12-16T04:50:15.982Z,1005.83
2022-12-16T04:51:15.960Z,1005.84
2022-12-16T04:52:15.946Z,1005.82
2022-12-16T04:53:15.936Z,1005.83
2022-12-16T04:54:15.935Z,1005.82
2022-12-16T04:55:15.938Z,1005.78
2022-12-16T04:56:15.914Z,1005.80
2022-12-16T04:57:15.926Z,1005.84
2022-12-16T04:58:15.896Z,1005.82
2022-12-16T04:59:15.877Z,1005.81
2022-12-16T05:00:15.874Z,1005.82
2022-12-16T05:01:15.888Z,1005.81
2022-12-16T05:02:15.960Z,1005.87
2022-12-16T05:03:15.949Z,1005.85
2022-12-16T05:04:15.854Z,1005.87
2022-12-16T05:05:15.815Z,1005.87
2022-12-16T05:06:15.809Z,1005.90
2022-12-16T05:07:15.795Z,1005.86
2022-12-16T05:08:15.785Z,1005.87
2022-12-16T05:09:15.794Z,1005.88
2022-12-16T05:10:15.760Z,1005.88
2022-12-16T05:11:15.758Z,1005.92
2022-12-16T05:12:15.740Z,1005.91
2022-12-16T05:13:15.729Z,1005.93
2022-12-16T05:14:15.739Z,1005.92
2022-12-16T05:15:15.715Z,1005.92
2022-12-16T05:16:15.776Z,1005.92
2022-12-16T05:17:15.692Z,1005.97
2022-12-16T05:18:15.697Z,1005.92
2022-12-16T05:19:15.673Z,1005.93
2022-12-16T05:20:15.761Z,1005.94
2022-12-16T05:21:15.652Z,1005.92
2022-12-16T05:22:15.636Z,1005.98
2022-12-16T05:23:15.642Z,1005.96
2022-12-16T05:24:15.637Z,1005.97
2022-12-16T05:25:15.606Z,1005.93
2022-12-16T05:26:15.603Z,1006.00
2022-12-16T05:27:15.583Z,1006.02
2022-12-16T05:28:15.587Z,1006.04
2022-12-16T05:29:15.568Z,1006.04
2022-12-16T05:30:15.554Z,1006.03
2022-12-16T05:31:15.660Z,1006.06
2022-12-16T05:32:15.534Z,1006.08
2022-12-16T05:33:15.525Z,1006.06
2022-12-16T05:34:15.510Z,1006.05
2022-12-16T05:35:15.519Z,1006.08
2022-12-16T05:36:15.515Z,1006.05
2022-12-16T05:37:15.495Z,1006.05
2022-12-16T05:38:15.496Z,1006.03
2022-12-16T05:39:15.464Z,1006.03
2022-12-16T05:40:15.447Z,1006.04
2022-12-16T05:41:15.462Z,1006.03
2022-12-16T05:42:15.450Z,1006.05
2022-12-16T05:43:17.041Z,1006.06
2022-12-16T05:44:15.409Z,1006.09
2022-12-16T05:45:15.394Z,1006.08
2022-12-16T05:46:15.561Z,1006.07
2022-12-16T05:47:15.441Z,1006.09
2022-12-16T05:48:15.385Z,1006.08
2022-12-16T05:49:15.356Z,1006.12
2022-12-16T05:50:15.361Z,1006.12
2022-12-16T05:51:15.338Z,1006.13
2022-12-16T05:52:15.387Z,1006.11
2022-12-16T05:53:15.317Z,1006.12
2022-12-16T05:54:15.312Z,1006.18
2022-12-16T05:55:15.296Z,1006.22
2022-12-16T05:56:15.288Z,1006.25
2022-12-16T05:57:15.286Z,1006.20
2022-12-16T05:58:15.281Z,1006.22
2022-12-16T05:59:15.269Z,1006.24
2022-12-16T06:00:15.236Z,1006.27
2022-12-16T06:01:15.228Z,1006.24
2022-12-16T06:02:15.417Z,1006.34
2022-12-16T06:03:15.420Z,1006.34
2022-12-16T06:04:17.778Z,1006.34
2022-12-16T06:05:15.183Z,1006.36
2022-12-16T06:06:15.184Z,1006.37
2022-12-16T06:07:15.174Z,1006.38
2022-12-16T06:08:15.177Z,1006.37
2022-12-16T06:09:15.195Z,1006.41
2022-12-16T06:10:15.139Z,1006.41
2022-12-16T06:11:15.124Z,1006.45
2022-12-16T06:12:15.116Z,1006.45
2022-12-16T06:13:15.110Z,1006.51
2022-12-16T06:14:15.093Z,1006.50
2022-12-16T06:15:15.122Z,1006.52
2022-12-16T06:16:15.111Z,1006.54
2022-12-16T06:17:15.064Z,1006.59
2022-12-16T06:18:15.057Z,1006.60
2022-12-16T06:19:15.041Z,1006.61
2022-12-16T06:20:15.035Z,1006.60
2022-12-16T06:21:15.038Z,1006.68
2022-12-16T06:22:15.017Z,1006.67
2022-12-16T06:23:15.011Z,1006.73
2022-12-16T06:24:15.018Z,1006.73
2022-12-16T06:25:15.021Z,1006.77
2022-12-16T06:26:14.988Z,1006.79
2022-12-16T06:27:14.968Z,1006.78
2022-12-16T06:28:14.947Z,1006.80
2022-12-16T06:29:14.934Z,1006.79
2022-12-16T06:30:14.930Z,1006.79
2022-12-16T06:31:14.969Z,1006.82
2022-12-16T06:32:14.926Z,1006.82
2022-12-16T06:33:14.916Z,1006.82
2022-12-16T06:34:14.893Z,1006.79
2022-12-16T06:35:14.881Z,1006.77
2022-12-16T06:36:14.865Z,1006.82
2022-12-16T06:37:14.858Z,1006.83
2022-12-16T06:38:14.852Z,1006.84
2022-12-16T06:39:14.853Z,1006.85
2022-12-16T06:40:14.844Z,1006.85
2022-12-16T06:41:14.818Z,1006.93
2022-12-16T06:42:14.825Z,1006.90
2022-12-16T06:43:14.810Z,1006.93
2022-12-16T06:44:14.830Z,1006.94
2022-12-16T06:45:14.767Z,1006.90
2022-12-16T06:46:14.843Z,1006.92
2022-12-16T06:47:14.755Z,1006.95
2022-12-16T06:48:14.756Z,1006.93
2022-12-16T06:49:14.733Z,1006.97
2022-12-16T06:50:14.716Z,1006.94
2022-12-16T06:51:14.716Z,1006.99
2022-12-16T06:52:14.704Z,1007.02
2022-12-16T06:53:14.709Z,1007.08
2022-12-16T06:54:14.692Z,1007.07
2022-12-16T06:55:14.673Z,1007.06
2022-12-16T06:56:14.673Z,1007.06
2022-12-16T06:57:14.650Z,1007.07
2022-12-16T06:58:14.636Z,1007.12
2022-12-16T06:59:14.652Z,1007.10
2022-12-16T07:00:14.609Z,1007.12
2022-12-16T07:01:14.636Z,1007.13
2022-12-16T07:02:14.700Z,1007.13
2022-12-16T07:03:14.644Z,1007.12
2022-12-16T07:04:14.574Z,1007.14
2022-12-16T07:05:14.583Z,1007.16
2022-12-16T07:06:14.558Z,1007.09
2022-12-16T07:07:14.548Z,1007.12
2022-12-16T07:08:14.529Z,1007.16
2022-12-16T07:09:14.558Z,1007.17
2022-12-16T07:10:14.524Z,1007.21
2022-12-16T07:11:17.149Z,1007.19
2022-12-16T07:12:14.507Z,1007.23
2022-12-16T07:13:14.511Z,1007.25
2022-12-16T07:14:14.472Z,1007.31
2022-12-16T07:15:14.484Z,1007.31
2022-12-16T07:16:14.507Z,1007.32
2022-12-16T07:17:17.278Z,1007.32
2022-12-16T07:18:14.431Z,1007.37
2022-12-16T07:19:14.425Z,1007.42
2022-12-16T07:20:14.404Z,1007.42
2022-12-16T07:21:14.415Z,1007.43
2022-12-16T07:22:14.387Z,1007.48
2022-12-16T07:23:19.534Z,1007.50
2022-12-16T07:24:14.371Z,1007.52
2022-12-16T07:25:14.360Z,1007.54
2022-12-16T07:26:14.362Z,1007.55
2022-12-16T07:27:14.346Z,1007.57
2022-12-16T07:28:15.905Z,1007.58
2022-12-16T07:29:14.313Z,1007.56
2022-12-16T07:30:14.296Z,1007.59
2022-12-16T07:31:14.347Z,1007.62
2022-12-16T07:32:14.523Z,1007.63
2022-12-16T07:33:14.266Z,1007.66
2022-12-16T07:34:14.259Z,1007.66
2022-12-16T07:35:14.250Z,1007.69
2022-12-16T07:36:14.242Z,1007.75
2022-12-16T07:37:14.237Z,1007.74
2022-12-16T07:38:14.233Z,1007.76
2022-12-16T07:39:14.210Z,1007.84
2022-12-16T07:40:14.219Z,1007.83
2022-12-16T07:41:14.190Z,1007.80
2022-12-16T07:42:14.194Z,1007.84
2022-12-16T07:43:14.167Z,1007.89
2022-12-16T07:44:14.281Z,1007.90
2022-12-16T07:45:14.153Z,1007.94
2022-12-16T07:46:14.277Z,1007.93
2022-12-16T07:47:14.121Z,1007.92
2022-12-16T07:48:14.125Z,1007.93
2022-12-16T07:49:14.118Z,1007.97
2022-12-16T07:50:14.095Z,1008.01
2022-12-16T07:51:14.079Z,1008.02
2022-12-16T07:52:14.066Z,1007.98
2022-12-16T07:53:14.064Z,1007.95
2022-12-16T07:54:14.067Z,1008.02
2022-12-16T07:55:14.044Z,1008.02
2022-12-16T07:56:14.043Z,1008.04
2022-12-16T07:57:14.025Z,1008.01
2022-12-16T07:58:14.019Z,1008.03
2022-12-16T07:59:14.013Z,1008.04
2022-12-16T08:00:14.033Z,1008.06
2022-12-16T08:01:14.024Z,1008.04
2022-12-16T08:02:14.145Z,1008.10
2022-12-16T08:03:14.032Z,1008.12
2022-12-16T08:04:13.946Z,1008.13
2022-12-16T08:05:13.943Z,1008.17
2022-12-16T08:06:13.937Z,1008.19
2022-12-16T08:07:13.909Z,1008.24
2022-12-16T08:08:13.913Z,1008.18
2022-12-16T08:09:13.893Z,1008.20
2022-12-16T08:10:13.904Z,1008.16
2022-12-16T08:11:13.891Z,1008.19
2022-12-16T08:12:13.854Z,1008.18
2022-12-16T08:13:13.851Z,1008.18
2022-12-16T08:14:13.844Z,1008.18
2022-12-16T08:15:13.831Z,1008.22
2022-12-16T08:16:13.901Z,1008.25
2022-12-16T08:17:13.904Z,1008.27
2022-12-16T08:18:13.809Z,1008.24
2022-12-16T08:19:13.791Z,1008.25
2022-12-16T08:20:13.771Z,1008.31
2022-12-16T08:21:13.766Z,1008.30
2022-12-16T08:22:13.792Z,1008.34
2022-12-16T08:23:13.742Z,1008.35
2022-12-16T08:24:13.737Z,1008.37
2022-12-16T08:25:13.722Z,1008.44
2022-12-16T08:26:13.712Z,1008.40
2022-12-16T08:27:13.709Z,1008.39
2022-12-16T08:28:13.761Z,1008.42
2022-12-16T08:29:42.415Z,1008.44
2022-12-16T08:30:14.678Z,1008.44
2022-12-16T08:31:13.747Z,1008.41
2022-12-16T08:32:13.674Z,1008.49
2022-12-16T08:33:19.200Z,1008.47
2022-12-16T08:34:14.639Z,1008.47
2022-12-16T08:35:13.628Z,1008.51
2022-12-16T08:36:13.609Z,1008.43
2022-12-16T08:37:13.593Z,1008.46
2022-12-16T08:39:14.577Z,1008.47
2022-12-16T08:40:34.261Z,1008.41
2022-12-16T08:41:14.552Z,1008.45
2022-12-16T08:42:13.551Z,1008.40
2022-12-16T08:43:13.566Z,1008.43
2022-12-16T08:44:13.547Z,1008.36
2022-12-16T08:45:13.515Z,1008.38
2022-12-16T08:46:13.600Z,1008.41
2022-12-16T08:47:13.495Z,1008.37
2022-12-16T08:48:13.607Z,1008.42
2022-12-16T08:49:13.476Z,1008.42
2022-12-16T08:50:13.485Z,1008.40
2022-12-16T08:51:13.447Z,1008.39
2022-12-16T08:52:13.442Z,1008.42
2022-12-16T08:53:13.428Z,1008.39
2022-12-16T08:54:13.416Z,1008.41
2022-12-16T08:55:13.455Z,1008.39
2022-12-16T08:56:13.398Z,1008.42
2022-12-16T08:57:13.389Z,1008.46
2022-12-16T08:58:13.439Z,1008.45
2022-12-16T08:59:13.361Z,1008.44
2022-12-16T09:00:13.355Z,1008.42
2022-12-16T09:01:13.467Z,1008.46
2022-12-16T09:02:13.571Z,1008.47
2022-12-16T09:03:13.470Z,1008.52
2022-12-16T09:04:13.511Z,1008.51
2022-12-16T09:05:13.311Z,1008.46
2022-12-16T09:06:13.321Z,1008.51
2022-12-16T09:07:13.298Z,1008.50
2022-12-16T09:08:13.325Z,1008.45
2022-12-16T09:09:13.265Z,1008.43
2022-12-16T09:10:13.300Z,1008.48
2022-12-16T09:11:13.246Z,1008.49
2022-12-16T09:12:13.437Z,1008.45
2022-12-16T09:13:13.240Z,1008.41
2022-12-16T09:14:13.215Z,1008.52
2022-12-16T09:15:13.244Z,1008.57
2022-12-16T09:16:17.743Z,1008.57
2022-12-16T09:17:13.193Z,1008.61
2022-12-16T09:18:13.230Z,1008.60
2022-12-16T09:19:13.162Z,1008.59
2022-12-16T09:20:13.174Z,1008.55
2022-12-16T09:21:13.161Z,1008.58
2022-12-16T09:22:13.166Z,1008.60
2022-12-16T09:23:13.148Z,1008.63
2022-12-16T09:24:13.102Z,1008.64
2022-12-16T09:25:13.119Z,1008.59
2022-12-16T09:26:13.155Z,1008.67
2022-12-16T09:27:13.074Z,1008.66
2022-12-16T09:28:13.111Z,1008.70
2022-12-16T09:29:13.043Z,1008.68
2022-12-16T09:30:13.039Z,1008.66
2022-12-16T09:31:13.096Z,1008.69
2022-12-16T09:32:13.022Z,1008.68
2022-12-16T09:33:12.999Z,1008.67
2022-12-16T09:34:13.022Z,1008.69
2022-12-16T09:35:13.841Z,1008.68
2022-12-16T09:36:13.099Z,1008.70
2022-12-16T09:37:12.969Z,1008.69
2022-12-16T09:38:22.548Z,1008.75
2022-12-16T09:39:12.940Z,1008.73
2022-12-16T09:40:12.979Z,1008.79
2022-12-16T09:41:13.007Z,1008.80
2022-12-16T09:42:12.910Z,1008.77
2022-12-16T09:43:12.915Z,1008.78
2022-12-16T09:44:12.916Z,1008.76
2022-12-16T09:45:12.913Z,1008.76
2022-12-16T09:46:12.911Z,1008.74
2022-12-16T09:47:12.863Z,1008.75
2022-12-16T09:48:12.970Z,1008.71
2022-12-16T09:49:12.833Z,1008.74
2022-12-16T09:50:12.827Z,1008.75
2022-12-16T09:51:12.836Z,1008.72
2022-12-16T09:52:18.143Z,1008.71
2022-12-16T09:53:13.792Z,1008.69
2022-12-16T09:54:12.795Z,1008.70
2022-12-16T09:55:12.768Z,1008.72
2022-12-16T09:56:12.778Z,1008.68
2022-12-16T09:57:12.779Z,1008.67
2022-12-16T09:58:12.885Z,1008.67
2022-12-16T09:59:12.721Z,1008.69
2022-12-16T10:00:12.748Z,1008.70
2022-12-16T10:01:12.724Z,1008.73
2022-12-16T10:02:12.954Z,1008.69
2022-12-16T10:03:12.901Z,1008.74
2022-12-16T10:04:12.704Z,1008.74
2022-12-16T10:05:12.693Z,1008.72
2022-12-16T10:06:13.371Z,1008.70
2022-12-16T10:07:12.806Z,1008.71
2022-12-16T10:08:18.644Z,1008.73
2022-12-16T10:09:13.611Z,1008.72
2022-12-16T10:10:12.610Z,1008.69
2022-12-16T10:11:12.604Z,1008.76
2022-12-16T10:12:12.640Z,1008.73
2022-12-16T10:13:12.600Z,1008.73
2022-12-16T10:14:17.638Z,1008.67
2022-12-16T10:15:13.568Z,1008.65
2022-12-16T10:16:12.608Z,1008.59
2022-12-16T10:17:12.529Z,1008.64
2022-12-16T10:18:12.562Z,1008.60
2022-12-16T10:19:12.513Z,1008.57
2022-12-16T10:20:12.526Z,1008.55
2022-12-16T10:21:12.589Z,1008.59
2022-12-16T10:22:12.509Z,1008.60
2022-12-16T10:23:12.504Z,1008.54
2022-12-16T10:24:12.484Z,1008.57
2022-12-16T10:25:12.451Z,1008.56
2022-12-16T10:26:12.437Z,1008.57
2022-12-16T10:27:12.427Z,1008.57
2022-12-16T10:28:12.438Z,1008.54
2022-12-16T10:29:12.440Z,1008.54
2022-12-16T10:30:12.490Z,1008.56
2022-12-16T10:31:12.527Z,1008.58
2022-12-16T10:32:12.405Z,1008.53
2022-12-16T10:33:12.363Z,1008.57
2022-12-16T10:34:12.353Z,1008.59
2022-12-16T10:35:12.355Z,1008.56
2022-12-16T10:36:12.329Z,1008.57
2022-12-16T10:37:16.399Z,1008.58
2022-12-16T10:38:13.357Z,1008.58
2022-12-16T10:39:12.318Z,1008.63
2022-12-16T10:40:12.398Z,1008.58
2022-12-16T10:41:12.297Z,1008.58
2022-12-16T10:42:12.332Z,1008.58
2022-12-16T10:43:12.323Z,1008.62
2022-12-16T10:44:12.488Z,1008.66
2022-12-16T10:45:12.320Z,1008.72
2022-12-16T10:46:12.334Z,1008.68
2022-12-16T10:47:12.241Z,1008.71
2022-12-16T10:48:12.285Z,1008.70
2022-12-16T10:49:12.316Z,1008.72
2022-12-16T10:50:12.416Z,1008.69
2022-12-16T10:51:12.190Z,1008.70
2022-12-16T10:52:12.226Z,1008.72
2022-12-16T10:53:12.168Z,1008.75
2022-12-16T10:54:12.184Z,1008.77
2022-12-16T10:55:12.150Z,1008.76
2022-12-16T10:56:12.164Z,1008.76
2022-12-16T10:57:12.121Z,1008.77
2022-12-16T10:58:12.108Z,1008.75
2022-12-16T10:59:12.118Z,1008.73
2022-12-16T11:00:12.125Z,1008.78
2022-12-16T11:01:12.088Z,1008.78
2022-12-16T11:02:12.257Z,1008.79
2022-12-16T11:03:12.304Z,1008.81
2022-12-16T11:04:12.158Z,1008.85
2022-12-16T11:05:12.055Z,1008.80
2022-12-16T11:06:12.132Z,1008.86
2022-12-16T11:07:12.024Z,1008.82
2022-12-16T11:08:12.034Z,1008.83
2022-12-16T11:09:11.993Z,1008.85
2022-12-16T11:10:12.004Z,1008.87
2022-12-16T11:11:11.964Z,1008.86
2022-12-16T11:12:12.000Z,1008.92
2022-12-16T11:13:11.952Z,1008.92
2022-12-16T11:14:11.939Z,1008.92
2022-12-16T11:15:28.874Z,1008.92
2022-12-16T11:16:12.955Z,1008.95
2022-12-16T11:17:12.040Z,1008.91
2022-12-16T11:18:11.881Z,1008.89
2022-12-16T11:19:11.891Z,1008.97
2022-12-16T11:20:11.920Z,1008.99
2022-12-16T11:21:15.835Z,1008.93
2022-12-16T11:22:12.136Z,1008.93
2022-12-16T11:23:11.844Z,1008.89
2022-12-16T11:24:11.832Z,1008.86
2022-12-16T11:25:11.819Z,1008.85
2022-12-16T11:26:11.904Z,1008.90
2022-12-16T11:27:11.843Z,1008.87
2022-12-16T11:28:11.894Z,1008.86
2022-12-16T11:29:11.851Z,1008.83
2022-12-16T11:30:12.109Z,1008.91
2022-12-16T11:31:11.913Z,1008.90
2022-12-16T11:32:11.742Z,1008.92
2022-12-16T11:33:17.119Z,1008.91
2022-12-16T11:34:12.895Z,1008.93
2022-12-16T11:35:11.757Z,1008.93
2022-12-16T11:36:12.057Z,1008.98
2022-12-16T11:37:12.370Z,1008.96
2022-12-16T11:38:11.986Z,1008.97
2022-12-16T11:39:11.677Z,1009.00
2022-12-16T11:40:11.688Z,1009.07
2022-12-16T11:41:11.676Z,1009.04
2022-12-16T11:42:11.632Z,1008.97
2022-12-16T11:43:16.792Z,1008.98
2022-12-16T11:44:12.662Z,1008.98
2022-12-16T11:45:11.669Z,1008.99
2022-12-16T11:46:11.658Z,1009.05
2022-12-16T11:47:11.576Z,1009.06
2022-12-16T11:48:11.604Z,1009.06
2022-12-16T11:49:11.597Z,1009.06
2022-12-16T11:50:11.554Z,1009.10
2022-12-16T11:51:11.570Z,1009.07
2022-12-16T11:52:35.433Z,1009.05
2022-12-16T11:53:12.531Z,1009.04
2022-12-16T11:54:11.505Z,1009.04
2022-12-16T11:55:11.571Z,1009.06
2022-12-16T11:56:15.935Z,1009.07
2022-12-16T11:57:12.503Z,1009.10
2022-12-16T11:58:11.470Z,1009.06
2022-12-16T11:59:11.481Z,1009.09
2022-12-16T12:00:11.468Z,1009.06
2022-12-16T12:01:11.431Z,1009.08
2022-12-16T12:02:11.547Z,1009.01
2022-12-16T12:03:11.503Z,1009.04
2022-12-16T12:04:11.499Z,1009.03
2022-12-16T12:05:11.392Z,1009.01
2022-12-16T12:06:11.386Z,1009.03